Hoofdpagina
Satellietbeelden 15-daagse BerichtenKlimaatMaritieme meteorologie Cyclonen Bliksem VliegveldenFAQ Nieuwsbrief Over ons
Weer : Europa Afrika Noord-Amerika Zuid-Amerika Azië Australië-Oceanië Anderen
Talen Contact

Oostende, België

breedte: 51-12N, lengte: 002-52E, hoogte: 4 m


METAR: EBOS 020150Z VRB01KT 9999 BKN045 15/13 Q1028 NOSIG
TAF: EBOS 012310Z 0200/0306 23004KT 9999 BKN040 PROB30 TEMPO 0202/0206 4000 BR TEMPO 0302/0306 2000 MIFG

Uur: 04:20 (02:20 UTC)

Actueel weer

Dit bericht werd 30 minuten geleden gemaakt, om 01:50 UTC  
Wind 01 kt uit verschillende richtingen
Temperatuur 15°C
Vochtigheid 88%
Druk 1028 hPa
Zicht 10 km of meer
Gebroken wolken op een hoogte van 4500 ft

Eenheden wisselen

Verwachting

Dit bericht werd 03 uren en 10 minuten geleden gemaakt, om 23:10 UTC  
Verwachting geldig van 02 om 00 UTC tot 03 om 06 UTC
Wind 04 kt van zuidwesten
Zicht 10 km of meer
Gebroken wolken op een hoogte van 4000 ft
Waarschijnlijkheid 30% :
Tijdelijke
van 02 om 02 UTC tot 02 om 06 UTC
Zicht 4000 m
nevel
Tijdelijke
van 03 om 02 UTC tot 03 om 06 UTC
Zicht 2000 m
laaghangend mist
Voor de informatie op deze site gelden een verklaring van afwijzing van aansprakelijkheid
Weer : Europa Afrika Noord-Amerika Zuid-Amerika Azië Australië-Oceanië Anderen
Satellietbeelden 15-daagse BerichtenKlimaatMaritieme meteorologie Cyclonen Bliksem VliegveldenFAQ Talen Contact Nieuwsbrief Over ons